sensor_id;sensor_type;location;lat;lon;timestamp;P1;durP1;ratioP1;P2;durP2;ratioP2
8919;SDS011;4495;42.644;23.274;2024-02-26T00:02:06;8.15;;;3.92;;
8919;SDS011;4495;42.644;23.274;2024-02-26T00:04:32;6.43;;;3.53;;
8919;SDS011;4495;42.644;23.274;2024-02-26T00:06:57;8.80;;;3.58;;
8919;SDS011;4495;42.644;23.274;2024-02-26T00:09:23;5.60;;;2.25;;
8919;SDS011;4495;42.644;23.274;2024-02-26T00:11:48;7.03;;;3.17;;
8919;SDS011;4495;42.644;23.274;2024-02-26T00:14:14;6.65;;;3.78;;
8919;SDS011;4495;42.644;23.274;2024-02-26T00:16:40;8.65;;;4.03;;
8919;SDS011;4495;42.644;23.274;2024-02-26T00:19:06;6.35;;;3.33;;
8919;SDS011;4495;42.644;23.274;2024-02-26T00:21:32;6.78;;;3.33;;
8919;SDS011;4495;42.644;23.274;2024-02-26T00:23:57;6.65;;;3.47;;
8919;SDS011;4495;42.644;23.274;2024-02-26T00:26:22;8.27;;;4.18;;
8919;SDS011;4495;42.644;23.274;2024-02-26T00:28:48;11.00;;;4.40;;
8919;SDS011;4495;42.644;23.274;2024-02-26T00:31:13;9.25;;;5.30;;
8919;SDS011;4495;42.644;23.274;2024-02-26T00:33:39;9.20;;;4.45;;
8919;SDS011;4495;42.644;23.274;2024-02-26T00:36:04;6.18;;;3.28;;
8919;SDS011;4495;42.644;23.274;2024-02-26T00:38:30;6.45;;;2.67;;
8919;SDS011;4495;42.644;23.274;2024-02-26T00:40:55;7.68;;;3.67;;
8919;SDS011;4495;42.644;23.274;2024-02-26T00:43:21;5.25;;;2.78;;
8919;SDS011;4495;42.644;23.274;2024-02-26T00:45:46;9.00;;;4.15;;
8919;SDS011;4495;42.644;23.274;2024-02-26T00:48:12;8.63;;;3.55;;
8919;SDS011;4495;42.644;23.274;2024-02-26T00:50:38;4.47;;;2.38;;
8919;SDS011;4495;42.644;23.274;2024-02-26T00:53:04;4.93;;;2.63;;
8919;SDS011;4495;42.644;23.274;2024-02-26T00:55:30;6.80;;;2.95;;
8919;SDS011;4495;42.644;23.274;2024-02-26T00:57:55;7.43;;;3.05;;
8919;SDS011;4495;42.644;23.274;2024-02-26T01:00:21;4.68;;;2.75;;
8919;SDS011;4495;42.644;23.274;2024-02-26T01:02:46;7.53;;;3.85;;
8919;SDS011;4495;42.644;23.274;2024-02-26T01:05:12;10.20;;;3.92;;
8919;SDS011;4495;42.644;23.274;2024-02-26T01:07:38;6.32;;;3.40;;
8919;SDS011;4495;42.644;23.274;2024-02-26T01:10:05;7.03;;;3.97;;
8919;SDS011;4495;42.644;23.274;2024-02-26T01:12:33;7.82;;;3.90;;
8919;SDS011;4495;42.644;23.274;2024-02-26T01:14:59;9.55;;;4.53;;
8919;SDS011;4495;42.644;23.274;2024-02-26T01:17:25;8.82;;;3.05;;
8919;SDS011;4495;42.644;23.274;2024-02-26T01:19:51;7.45;;;3.35;;
8919;SDS011;4495;42.644;23.274;2024-02-26T01:22:16;8.07;;;3.92;;
8919;SDS011;4495;42.644;23.274;2024-02-26T01:24:42;7.35;;;3.97;;
8919;SDS011;4495;42.644;23.274;2024-02-26T01:27:08;6.28;;;3.35;;
8919;SDS011;4495;42.644;23.274;2024-02-26T01:29:34;9.07;;;3.78;;
8919;SDS011;4495;42.644;23.274;2024-02-26T01:32:00;4.63;;;3.05;;
8919;SDS011;4495;42.644;23.274;2024-02-26T01:34:25;7.53;;;3.67;;
8919;SDS011;4495;42.644;23.274;2024-02-26T01:36:50;7.38;;;4.30;;
8919;SDS011;4495;42.644;23.274;2024-02-26T01:39:16;8.40;;;3.72;;
8919;SDS011;4495;42.644;23.274;2024-02-26T01:41:41;6.95;;;3.80;;
8919;SDS011;4495;42.644;23.274;2024-02-26T01:44:07;7.38;;;3.88;;
8919;SDS011;4495;42.644;23.274;2024-02-26T01:46:33;8.82;;;4.30;;
8919;SDS011;4495;42.644;23.274;2024-02-26T01:49:01;8.93;;;3.97;;
8919;SDS011;4495;42.644;23.274;2024-02-26T01:51:28;8.02;;;3.38;;
8919;SDS011;4495;42.644;23.274;2024-02-26T01:53:54;5.85;;;3.30;;
8919;SDS011;4495;42.644;23.274;2024-02-26T01:56:20;6.72;;;3.92;;
8919;SDS011;4495;42.644;23.274;2024-02-26T01:58:47;8.63;;;4.00;;
8919;SDS011;4495;42.644;23.274;2024-02-26T02:01:14;9.40;;;4.10;;
8919;SDS011;4495;42.644;23.274;2024-02-26T02:03:41;7.28;;;3.47;;
8919;SDS011;4495;42.644;23.274;2024-02-26T02:06:07;8.32;;;3.63;;
8919;SDS011;4495;42.644;23.274;2024-02-26T02:08:33;6.82;;;3.67;;
8919;SDS011;4495;42.644;23.274;2024-02-26T02:11:00;8.52;;;3.38;;
8919;SDS011;4495;42.644;23.274;2024-02-26T02:13:25;7.80;;;3.80;;
8919;SDS011;4495;42.644;23.274;2024-02-26T02:15:51;6.18;;;3.17;;
8919;SDS011;4495;42.644;23.274;2024-02-26T02:18:17;6.63;;;4.05;;
8919;SDS011;4495;42.644;23.274;2024-02-26T02:20:42;9.63;;;3.67;;
8919;SDS011;4495;42.644;23.274;2024-02-26T02:23:08;8.00;;;3.40;;
8919;SDS011;4495;42.644;23.274;2024-02-26T02:25:33;4.40;;;3.03;;
8919;SDS011;4495;42.644;23.274;2024-02-26T02:27:59;6.47;;;2.92;;
8919;SDS011;4495;42.644;23.274;2024-02-26T02:30:25;8.27;;;3.05;;
8919;SDS011;4495;42.644;23.274;2024-02-26T02:32:52;6.95;;;3.65;;
8919;SDS011;4495;42.644;23.274;2024-02-26T02:35:18;6.65;;;3.53;;
8919;SDS011;4495;42.644;23.274;2024-02-26T02:37:44;8.07;;;4.18;;
8919;SDS011;4495;42.644;23.274;2024-02-26T02:40:09;9.07;;;3.72;;
8919;SDS011;4495;42.644;23.274;2024-02-26T02:42:35;7.07;;;3.50;;
8919;SDS011;4495;42.644;23.274;2024-02-26T02:45:00;7.20;;;3.53;;
8919;SDS011;4495;42.644;23.274;2024-02-26T02:47:25;7.43;;;3.38;;
8919;SDS011;4495;42.644;23.274;2024-02-26T02:49:51;6.40;;;3.80;;
8919;SDS011;4495;42.644;23.274;2024-02-26T02:52:16;7.35;;;4.07;;
8919;SDS011;4495;42.644;23.274;2024-02-26T02:54:42;8.68;;;4.75;;
8919;SDS011;4495;42.644;23.274;2024-02-26T02:57:07;8.80;;;4.43;;
8919;SDS011;4495;42.644;23.274;2024-02-26T02:59:33;8.88;;;4.28;;
8919;SDS011;4495;42.644;23.274;2024-02-26T03:01:59;8.07;;;4.43;;
8919;SDS011;4495;42.644;23.274;2024-02-26T03:04:24;9.73;;;4.75;;
8919;SDS011;4495;42.644;23.274;2024-02-26T03:06:50;7.75;;;5.18;;
8919;SDS011;4495;42.644;23.274;2024-02-26T03:09:15;11.45;;;4.78;;
8919;SDS011;4495;42.644;23.274;2024-02-26T03:11:40;9.30;;;5.35;;
8919;SDS011;4495;42.644;23.274;2024-02-26T03:14:06;13.40;;;5.55;;
8919;SDS011;4495;42.644;23.274;2024-02-26T03:16:31;12.40;;;6.28;;
8919;SDS011;4495;42.644;23.274;2024-02-26T03:18:57;8.15;;;4.70;;
8919;SDS011;4495;42.644;23.274;2024-02-26T03:21:24;7.82;;;3.92;;
8919;SDS011;4495;42.644;23.274;2024-02-26T03:23:50;8.93;;;3.90;;
8919;SDS011;4495;42.644;23.274;2024-02-26T03:26:15;8.05;;;4.85;;
8919;SDS011;4495;42.644;23.274;2024-02-26T03:28:41;12.60;;;4.90;;
8919;SDS011;4495;42.644;23.274;2024-02-26T03:31:06;5.75;;;3.50;;
8919;SDS011;4495;42.644;23.274;2024-02-26T03:33:32;8.00;;;4.40;;
8919;SDS011;4495;42.644;23.274;2024-02-26T03:35:57;13.20;;;4.85;;
8919;SDS011;4495;42.644;23.274;2024-02-26T03:38:22;9.27;;;4.93;;
8919;SDS011;4495;42.644;23.274;2024-02-26T03:40:48;8.23;;;4.45;;
8919;SDS011;4495;42.644;23.274;2024-02-26T03:43:13;7.40;;;4.10;;
8919;SDS011;4495;42.644;23.274;2024-02-26T03:45:39;8.40;;;4.10;;
8919;SDS011;4495;42.644;23.274;2024-02-26T03:48:04;6.88;;;3.40;;
8919;SDS011;4495;42.644;23.274;2024-02-26T03:50:30;6.72;;;3.88;;
8919;SDS011;4495;42.644;23.274;2024-02-26T03:52:55;8.40;;;3.78;;
8919;SDS011;4495;42.644;23.274;2024-02-26T03:57:53;7.60;;;3.88;;
8919;SDS011;4495;42.644;23.274;2024-02-26T04:00:19;7.55;;;3.92;;
8919;SDS011;4495;42.644;23.274;2024-02-26T04:02:44;7.43;;;3.42;;
8919;SDS011;4495;42.644;23.274;2024-02-26T04:05:11;6.68;;;3.22;;
8919;SDS011;4495;42.644;23.274;2024-02-26T04:07:37;6.38;;;3.70;;
8919;SDS011;4495;42.644;23.274;2024-02-26T04:10:02;8.25;;;4.40;;
8919;SDS011;4495;42.644;23.274;2024-02-26T04:12:31;8.48;;;4.07;;
8919;SDS011;4495;42.644;23.274;2024-02-26T04:14:56;8.43;;;5.30;;
8919;SDS011;4495;42.644;23.274;2024-02-26T04:17:21;8.13;;;4.85;;
8919;SDS011;4495;42.644;23.274;2024-02-26T04:19:47;8.75;;;4.35;;
8919;SDS011;4495;42.644;23.274;2024-02-26T04:22:12;9.15;;;3.90;;
8919;SDS011;4495;42.644;23.274;2024-02-26T04:24:38;8.65;;;4.43;;
8919;SDS011;4495;42.644;23.274;2024-02-26T04:27:03;8.13;;;4.20;;
8919;SDS011;4495;42.644;23.274;2024-02-26T04:29:29;6.07;;;3.83;;
8919;SDS011;4495;42.644;23.274;2024-02-26T04:31:54;7.43;;;4.28;;
8919;SDS011;4495;42.644;23.274;2024-02-26T04:34:19;7.85;;;3.33;;
8919;SDS011;4495;42.644;23.274;2024-02-26T04:36:45;8.30;;;3.47;;
8919;SDS011;4495;42.644;23.274;2024-02-26T04:39:10;5.97;;;3.45;;
8919;SDS011;4495;42.644;23.274;2024-02-26T04:41:36;8.02;;;3.63;;
8919;SDS011;4495;42.644;23.274;2024-02-26T04:44:01;6.85;;;3.55;;
8919;SDS011;4495;42.644;23.274;2024-02-26T04:46:27;6.38;;;3.53;;
8919;SDS011;4495;42.644;23.274;2024-02-26T04:48:53;8.18;;;4.35;;
8919;SDS011;4495;42.644;23.274;2024-02-26T04:51:19;7.30;;;4.07;;
8919;SDS011;4495;42.644;23.274;2024-02-26T04:53:44;12.10;;;5.70;;
8919;SDS011;4495;42.644;23.274;2024-02-26T04:56:09;10.68;;;5.20;;
8919;SDS011;4495;42.644;23.274;2024-02-26T04:58:35;11.10;;;6.40;;
8919;SDS011;4495;42.644;23.274;2024-02-26T05:01:00;17.88;;;7.72;;
8919;SDS011;4495;42.644;23.274;2024-02-26T05:03:26;16.67;;;6.85;;
8919;SDS011;4495;42.644;23.274;2024-02-26T05:05:51;18.20;;;9.00;;
8919;SDS011;4495;42.644;23.274;2024-02-26T05:08:17;16.77;;;9.40;;
8919;SDS011;4495;42.644;23.274;2024-02-26T05:10:42;24.33;;;11.05;;
8919;SDS011;4495;42.644;23.274;2024-02-26T05:13:10;24.25;;;10.88;;
8919;SDS011;4495;42.644;23.274;2024-02-26T05:15:35;19.85;;;9.85;;
8919;SDS011;4495;42.644;23.274;2024-02-26T05:18:01;19.65;;;9.75;;
8919;SDS011;4495;42.644;23.274;2024-02-26T05:20:27;22.55;;;11.00;;
8919;SDS011;4495;42.644;23.274;2024-02-26T05:22:53;23.83;;;12.18;;
8919;SDS011;4495;42.644;23.274;2024-02-26T05:25:19;22.08;;;12.00;;
8919;SDS011;4495;42.644;23.274;2024-02-26T05:27:44;28.33;;;12.13;;
8919;SDS011;4495;42.644;23.274;2024-02-26T05:30:10;26.55;;;12.18;;
8919;SDS011;4495;42.644;23.274;2024-02-26T05:32:36;25.80;;;12.23;;
8919;SDS011;4495;42.644;23.274;2024-02-26T05:35:02;22.10;;;12.32;;
8919;SDS011;4495;42.644;23.274;2024-02-26T05:37:28;24.63;;;13.15;;
8919;SDS011;4495;42.644;23.274;2024-02-26T05:39:54;26.92;;;12.52;;
8919;SDS011;4495;42.644;23.274;2024-02-26T05:42:19;25.65;;;12.70;;
8919;SDS011;4495;42.644;23.274;2024-02-26T05:44:45;25.50;;;13.52;;
8919;SDS011;4495;42.644;23.274;2024-02-26T05:47:10;26.55;;;13.70;;
8919;SDS011;4495;42.644;23.274;2024-02-26T05:49:36;27.45;;;13.05;;
8919;SDS011;4495;42.644;23.274;2024-02-26T05:52:01;25.98;;;12.88;;
8919;SDS011;4495;42.644;23.274;2024-02-26T05:54:27;22.50;;;12.20;;
8919;SDS011;4495;42.644;23.274;2024-02-26T05:56:52;23.40;;;11.85;;
8919;SDS011;4495;42.644;23.274;2024-02-26T05:59:18;27.50;;;12.98;;
8919;SDS011;4495;42.644;23.274;2024-02-26T06:01:43;28.95;;;14.00;;
8919;SDS011;4495;42.644;23.274;2024-02-26T06:04:09;28.42;;;13.88;;
8919;SDS011;4495;42.644;23.274;2024-02-26T06:06:34;31.25;;;14.15;;
8919;SDS011;4495;42.644;23.274;2024-02-26T06:08:59;29.52;;;13.18;;
8919;SDS011;4495;42.644;23.274;2024-02-26T06:11:25;30.08;;;14.20;;
8919;SDS011;4495;42.644;23.274;2024-02-26T06:13:50;26.88;;;14.65;;
8919;SDS011;4495;42.644;23.274;2024-02-26T06:16:16;28.98;;;13.77;;
8919;SDS011;4495;42.644;23.274;2024-02-26T06:18:41;28.65;;;14.30;;
8919;SDS011;4495;42.644;23.274;2024-02-26T06:21:10;28.15;;;14.50;;
8919;SDS011;4495;42.644;23.274;2024-02-26T06:23:35;27.55;;;13.25;;
8919;SDS011;4495;42.644;23.274;2024-02-26T06:26:01;29.70;;;14.70;;
8919;SDS011;4495;42.644;23.274;2024-02-26T06:28:26;29.08;;;14.05;;
8919;SDS011;4495;42.644;23.274;2024-02-26T06:30:55;28.38;;;14.88;;
8919;SDS011;4495;42.644;23.274;2024-02-26T06:33:21;28.25;;;12.90;;
8919;SDS011;4495;42.644;23.274;2024-02-26T06:35:46;27.73;;;14.93;;
8919;SDS011;4495;42.644;23.274;2024-02-26T06:38:12;31.80;;;15.88;;
8919;SDS011;4495;42.644;23.274;2024-02-26T06:40:38;29.73;;;15.35;;
8919;SDS011;4495;42.644;23.274;2024-02-26T06:43:04;30.27;;;15.07;;
8919;SDS011;4495;42.644;23.274;2024-02-26T06:45:29;33.92;;;14.77;;
8919;SDS011;4495;42.644;23.274;2024-02-26T06:47:55;26.00;;;13.85;;
8919;SDS011;4495;42.644;23.274;2024-02-26T06:50:21;26.35;;;13.82;;
8919;SDS011;4495;42.644;23.274;2024-02-26T06:52:47;24.58;;;13.18;;
8919;SDS011;4495;42.644;23.274;2024-02-26T06:55:12;28.88;;;14.93;;
8919;SDS011;4495;42.644;23.274;2024-02-26T06:57:38;27.38;;;14.23;;
8919;SDS011;4495;42.644;23.274;2024-02-26T07:00:04;30.13;;;14.70;;
8919;SDS011;4495;42.644;23.274;2024-02-26T07:02:30;28.80;;;14.65;;
8919;SDS011;4495;42.644;23.274;2024-02-26T07:04:55;32.58;;;16.85;;
8919;SDS011;4495;42.644;23.274;2024-02-26T07:07:23;33.13;;;16.75;;
8919;SDS011;4495;42.644;23.274;2024-02-26T07:09:49;28.08;;;15.68;;
8919;SDS011;4495;42.644;23.274;2024-02-26T07:12:14;32.85;;;17.23;;
8919;SDS011;4495;42.644;23.274;2024-02-26T07:14:41;32.58;;;16.85;;
8919;SDS011;4495;42.644;23.274;2024-02-26T07:17:06;31.40;;;16.25;;
8919;SDS011;4495;42.644;23.274;2024-02-26T07:19:33;31.90;;;16.75;;
8919;SDS011;4495;42.644;23.274;2024-02-26T07:21:59;33.53;;;16.83;;
8919;SDS011;4495;42.644;23.274;2024-02-26T07:24:26;34.20;;;16.15;;
8919;SDS011;4495;42.644;23.274;2024-02-26T07:26:52;37.28;;;16.50;;
8919;SDS011;4495;42.644;23.274;2024-02-26T07:29:20;29.75;;;15.85;;
8919;SDS011;4495;42.644;23.274;2024-02-26T07:31:46;34.33;;;15.40;;
8919;SDS011;4495;42.644;23.274;2024-02-26T07:34:12;32.72;;;16.17;;
8919;SDS011;4495;42.644;23.274;2024-02-26T07:36:37;31.77;;;15.20;;
8919;SDS011;4495;42.644;23.274;2024-02-26T07:39:02;33.28;;;15.52;;
8919;SDS011;4495;42.644;23.274;2024-02-26T07:41:28;31.88;;;15.45;;
8919;SDS011;4495;42.644;23.274;2024-02-26T07:43:53;34.50;;;16.55;;
8919;SDS011;4495;42.644;23.274;2024-02-26T07:46:19;33.00;;;15.35;;
8919;SDS011;4495;42.644;23.274;2024-02-26T07:48:44;33.28;;;16.13;;
8919;SDS011;4495;42.644;23.274;2024-02-26T07:51:12;30.05;;;15.65;;
8919;SDS011;4495;42.644;23.274;2024-02-26T07:53:38;31.20;;;15.05;;
8919;SDS011;4495;42.644;23.274;2024-02-26T07:56:03;31.50;;;15.00;;
8919;SDS011;4495;42.644;23.274;2024-02-26T07:58:29;27.50;;;14.23;;
8919;SDS011;4495;42.644;23.274;2024-02-26T08:00:54;23.98;;;12.55;;
8919;SDS011;4495;42.644;23.274;2024-02-26T08:03:19;23.40;;;12.95;;
8919;SDS011;4495;42.644;23.274;2024-02-26T08:05:45;23.48;;;12.95;;
8919;SDS011;4495;42.644;23.274;2024-02-26T08:08:10;20.83;;;12.45;;
8919;SDS011;4495;42.644;23.274;2024-02-26T08:10:36;21.13;;;11.90;;
8919;SDS011;4495;42.644;23.274;2024-02-26T08:13:01;20.48;;;10.45;;
8919;SDS011;4495;42.644;23.274;2024-02-26T08:15:32;25.15;;;12.18;;
8919;SDS011;4495;42.644;23.274;2024-02-26T08:18:02;29.33;;;11.77;;
8919;SDS011;4495;42.644;23.274;2024-02-26T08:20:28;19.73;;;10.73;;
8919;SDS011;4495;42.644;23.274;2024-02-26T08:22:54;27.98;;;11.20;;
8919;SDS011;4495;42.644;23.274;2024-02-26T08:25:20;22.20;;;11.07;;
8919;SDS011;4495;42.644;23.274;2024-02-26T08:27:46;18.92;;;10.30;;
8919;SDS011;4495;42.644;23.274;2024-02-26T08:30:12;16.83;;;9.02;;
8919;SDS011;4495;42.644;23.274;2024-02-26T08:32:41;22.23;;;9.77;;
8919;SDS011;4495;42.644;23.274;2024-02-26T08:35:07;20.10;;;9.02;;
8919;SDS011;4495;42.644;23.274;2024-02-26T08:37:33;19.42;;;9.75;;
8919;SDS011;4495;42.644;23.274;2024-02-26T08:39:58;14.85;;;8.18;;
8919;SDS011;4495;42.644;23.274;2024-02-26T08:42:24;15.75;;;8.63;;
8919;SDS011;4495;42.644;23.274;2024-02-26T08:44:49;17.13;;;8.25;;
8919;SDS011;4495;42.644;23.274;2024-02-26T08:47:14;13.25;;;7.78;;
8919;SDS011;4495;42.644;23.274;2024-02-26T08:49:44;10.85;;;6.82;;
8919;SDS011;4495;42.644;23.274;2024-02-26T08:52:10;13.90;;;7.38;;
8919;SDS011;4495;42.644;23.274;2024-02-26T08:54:36;13.80;;;6.97;;
8919;SDS011;4495;42.644;23.274;2024-02-26T08:57:01;12.13;;;7.03;;
8919;SDS011;4495;42.644;23.274;2024-02-26T08:59:27;14.60;;;6.65;;
8919;SDS011;4495;42.644;23.274;2024-02-26T09:01:53;11.65;;;6.97;;
8919;SDS011;4495;42.644;23.274;2024-02-26T09:04:18;19.17;;;8.07;;
8919;SDS011;4495;42.644;23.274;2024-02-26T09:06:44;13.98;;;8.07;;
8919;SDS011;4495;42.644;23.274;2024-02-26T09:09:09;18.23;;;9.65;;
8919;SDS011;4495;42.644;23.274;2024-02-26T09:11:36;19.30;;;10.63;;
8919;SDS011;4495;42.644;23.274;2024-02-26T09:14:01;18.90;;;8.98;;
8919;SDS011;4495;42.644;23.274;2024-02-26T09:16:28;15.98;;;6.93;;
8919;SDS011;4495;42.644;23.274;2024-02-26T09:18:54;11.10;;;5.82;;
8919;SDS011;4495;42.644;23.274;2024-02-26T09:21:20;7.63;;;4.72;;
8919;SDS011;4495;42.644;23.274;2024-02-26T09:23:49;8.18;;;4.93;;
8919;SDS011;4495;42.644;23.274;2024-02-26T09:26:15;10.55;;;4.82;;
8919;SDS011;4495;42.644;23.274;2024-02-26T09:28:40;9.18;;;4.47;;
8919;SDS011;4495;42.644;23.274;2024-02-26T09:31:05;9.50;;;4.82;;
8919;SDS011;4495;42.644;23.274;2024-02-26T09:33:32;8.63;;;4.85;;
8919;SDS011;4495;42.644;23.274;2024-02-26T09:38:23;6.47;;;4.13;;
8919;SDS011;4495;42.644;23.274;2024-02-26T09:40:49;6.43;;;5.25;;
8919;SDS011;4495;42.644;23.274;2024-02-26T09:43:15;9.15;;;4.57;;
8919;SDS011;4495;42.644;23.274;2024-02-26T09:45:45;10.88;;;4.57;;
8919;SDS011;4495;42.644;23.274;2024-02-26T09:48:10;7.60;;;4.90;;
8919;SDS011;4495;42.644;23.274;2024-02-26T09:50:38;10.80;;;5.15;;
8919;SDS011;4495;42.644;23.274;2024-02-26T09:53:06;10.77;;;5.43;;
8919;SDS011;4495;42.644;23.274;2024-02-26T09:55:35;11.43;;;4.75;;
8919;SDS011;4495;42.644;23.274;2024-02-26T09:58:01;11.90;;;4.35;;
8919;SDS011;4495;42.644;23.274;2024-02-26T10:00:27;9.02;;;4.40;;
8919;SDS011;4495;42.644;23.274;2024-02-26T10:02:58;11.55;;;4.57;;
8919;SDS011;4495;42.644;23.274;2024-02-26T10:05:29;9.05;;;4.43;;
8919;SDS011;4495;42.644;23.274;2024-02-26T10:07:56;9.63;;;4.20;;
8919;SDS011;4495;42.644;23.274;2024-02-26T10:12:48;8.25;;;4.20;;
8919;SDS011;4495;42.644;23.274;2024-02-26T10:15:13;6.57;;;4.55;;
8919;SDS011;4495;42.644;23.274;2024-02-26T10:17:39;8.90;;;4.20;;
8919;SDS011;4495;42.644;23.274;2024-02-26T10:20:12;10.00;;;4.80;;
8919;SDS011;4495;42.644;23.274;2024-02-26T10:22:46;7.30;;;4.60;;
8919;SDS011;4495;42.644;23.274;2024-02-26T10:25:12;7.10;;;4.20;;
8919;SDS011;4495;42.644;23.274;2024-02-26T10:27:38;9.10;;;4.30;;
8919;SDS011;4495;42.644;23.274;2024-02-26T10:30:27;7.53;;;4.43;;
8919;SDS011;4495;42.644;23.274;2024-02-26T10:32:52;8.15;;;4.90;;
8919;SDS011;4495;42.644;23.274;2024-02-26T10:35:18;7.65;;;4.47;;
8919;SDS011;4495;42.644;23.274;2024-02-26T10:37:47;8.93;;;4.97;;
8919;SDS011;4495;42.644;23.274;2024-02-26T10:40:14;8.02;;;4.82;;
8919;SDS011;4495;42.644;23.274;2024-02-26T10:42:41;7.63;;;4.68;;
8919;SDS011;4495;42.644;23.274;2024-02-26T10:45:07;8.40;;;5.40;;
8919;SDS011;4495;42.644;23.274;2024-02-26T10:47:37;6.35;;;4.63;;
8919;SDS011;4495;42.644;23.274;2024-02-26T10:50:03;7.45;;;4.45;;
8919;SDS011;4495;42.644;23.274;2024-02-26T10:52:34;8.07;;;4.70;;
8919;SDS011;4495;42.644;23.274;2024-02-26T10:55:01;9.35;;;5.25;;
8919;SDS011;4495;42.644;23.274;2024-02-26T10:57:29;6.85;;;4.75;;
8919;SDS011;4495;42.644;23.274;2024-02-26T11:00:04;9.60;;;4.40;;
8919;SDS011;4495;42.644;23.274;2024-02-26T11:02:33;7.40;;;4.95;;
8919;SDS011;4495;42.644;23.274;2024-02-26T11:05:02;7.15;;;4.25;;
8919;SDS011;4495;42.644;23.274;2024-02-26T11:07:29;7.78;;;4.50;;
8919;SDS011;4495;42.644;23.274;2024-02-26T11:09:56;10.38;;;4.82;;
8919;SDS011;4495;42.644;23.274;2024-02-26T11:12:22;8.18;;;4.78;;
8919;SDS011;4495;42.644;23.274;2024-02-26T11:14:49;9.55;;;4.82;;
8919;SDS011;4495;42.644;23.274;2024-02-26T11:17:19;7.72;;;4.63;;
8919;SDS011;4495;42.644;23.274;2024-02-26T11:19:46;7.85;;;5.15;;
8919;SDS011;4495;42.644;23.274;2024-02-26T11:22:14;7.45;;;4.85;;
8919;SDS011;4495;42.644;23.274;2024-02-26T11:24:40;9.43;;;4.90;;
8919;SDS011;4495;42.644;23.274;2024-02-26T11:27:08;7.25;;;4.53;;
8919;SDS011;4495;42.644;23.274;2024-02-26T11:29:43;8.57;;;5.45;;
8919;SDS011;4495;42.644;23.274;2024-02-26T11:32:12;7.85;;;5.00;;
8919;SDS011;4495;42.644;23.274;2024-02-26T11:34:39;8.43;;;5.22;;
8919;SDS011;4495;42.644;23.274;2024-02-26T11:37:12;10.80;;;5.50;;
8919;SDS011;4495;42.644;23.274;2024-02-26T11:39:41;10.43;;;5.00;;
8919;SDS011;4495;42.644;23.274;2024-02-26T11:42:08;9.93;;;4.90;;
8919;SDS011;4495;42.644;23.274;2024-02-26T11:44:34;8.15;;;4.85;;
8919;SDS011;4495;42.644;23.274;2024-02-26T11:47:14;7.82;;;4.88;;
8919;SDS011;4495;42.644;23.274;2024-02-26T11:49:43;8.40;;;5.03;;
8919;SDS011;4495;42.644;23.274;2024-02-26T11:52:09;7.82;;;4.53;;
8919;SDS011;4495;42.644;23.274;2024-02-26T11:57:24;6.85;;;4.78;;
8919;SDS011;4495;42.644;23.274;2024-02-26T11:59:56;7.10;;;4.55;;
8919;SDS011;4495;42.644;23.274;2024-02-26T12:05:12;8.73;;;4.32;;
8919;SDS011;4495;42.644;23.274;2024-02-26T12:07:45;8.27;;;4.13;;
8919;SDS011;4495;42.644;23.274;2024-02-26T12:12:41;7.50;;;3.80;;
8919;SDS011;4495;42.644;23.274;2024-02-26T12:15:07;6.55;;;3.97;;
8919;SDS011;4495;42.644;23.274;2024-02-26T12:17:36;8.35;;;4.60;;
8919;SDS011;4495;42.644;23.274;2024-02-26T12:22:34;9.63;;;3.97;;
8919;SDS011;4495;42.644;23.274;2024-02-26T12:25:02;5.32;;;3.90;;
8919;SDS011;4495;42.644;23.274;2024-02-26T12:27:28;5.93;;;3.90;;
8919;SDS011;4495;42.644;23.274;2024-02-26T12:29:53;8.48;;;4.18;;
8919;SDS011;4495;42.644;23.274;2024-02-26T12:32:19;4.45;;;3.25;;
8919;SDS011;4495;42.644;23.274;2024-02-26T12:34:44;4.63;;;3.45;;
8919;SDS011;4495;42.644;23.274;2024-02-26T12:37:10;7.93;;;3.97;;
8919;SDS011;4495;42.644;23.274;2024-02-26T12:39:36;7.30;;;4.13;;
8919;SDS011;4495;42.644;23.274;2024-02-26T12:42:02;8.23;;;4.25;;
8919;SDS011;4495;42.644;23.274;2024-02-26T12:44:28;5.18;;;3.65;;
8919;SDS011;4495;42.644;23.274;2024-02-26T12:47:00;7.95;;;3.65;;
8919;SDS011;4495;42.644;23.274;2024-02-26T12:49:29;12.40;;;5.43;;
8919;SDS011;4495;42.644;23.274;2024-02-26T12:51:54;16.88;;;8.02;;
8919;SDS011;4495;42.644;23.274;2024-02-26T12:54:26;20.90;;;8.23;;
8919;SDS011;4495;42.644;23.274;2024-02-26T12:56:53;12.07;;;4.70;;
8919;SDS011;4495;42.644;23.274;2024-02-26T12:59:19;6.30;;;4.03;;
8919;SDS011;4495;42.644;23.274;2024-02-26T13:01:44;8.50;;;4.57;;
8919;SDS011;4495;42.644;23.274;2024-02-26T13:04:10;13.48;;;4.85;;
8919;SDS011;4495;42.644;23.274;2024-02-26T13:06:36;16.50;;;6.00;;
8919;SDS011;4495;42.644;23.274;2024-02-26T13:09:02;12.35;;;4.70;;
8919;SDS011;4495;42.644;23.274;2024-02-26T13:11:28;16.17;;;6.05;;
8919;SDS011;4495;42.644;23.274;2024-02-26T13:13:54;11.02;;;4.82;;
8919;SDS011;4495;42.644;23.274;2024-02-26T13:18:48;11.48;;;4.35;;
8919;SDS011;4495;42.644;23.274;2024-02-26T13:21:14;8.43;;;4.10;;
8919;SDS011;4495;42.644;23.274;2024-02-26T13:23:41;12.68;;;5.68;;
8919;SDS011;4495;42.644;23.274;2024-02-26T13:26:07;14.25;;;5.22;;
8919;SDS011;4495;42.644;23.274;2024-02-26T13:28:34;7.80;;;3.70;;
8919;SDS011;4495;42.644;23.274;2024-02-26T13:31:00;5.88;;;3.45;;
8919;SDS011;4495;42.644;23.274;2024-02-26T13:33:27;7.13;;;3.33;;
8919;SDS011;4495;42.644;23.274;2024-02-26T13:35:54;7.88;;;3.00;;
8919;SDS011;4495;42.644;23.274;2024-02-26T13:38:23;10.02;;;3.45;;
8919;SDS011;4495;42.644;23.274;2024-02-26T13:40:49;8.23;;;3.33;;
8919;SDS011;4495;42.644;23.274;2024-02-26T13:43:15;7.35;;;3.33;;
8919;SDS011;4495;42.644;23.274;2024-02-26T13:45:41;6.28;;;3.33;;
8919;SDS011;4495;42.644;23.274;2024-02-26T13:48:09;6.50;;;3.35;;
8919;SDS011;4495;42.644;23.274;2024-02-26T13:50:36;6.00;;;3.45;;
8919;SDS011;4495;42.644;23.274;2024-02-26T13:53:02;6.82;;;3.35;;
8919;SDS011;4495;42.644;23.274;2024-02-26T13:55:27;5.18;;;3.47;;
8919;SDS011;4495;42.644;23.274;2024-02-26T13:57:58;5.05;;;2.88;;
8919;SDS011;4495;42.644;23.274;2024-02-26T14:00:26;6.78;;;3.72;;
8919;SDS011;4495;42.644;23.274;2024-02-26T14:02:57;9.23;;;4.40;;
8919;SDS011;4495;42.644;23.274;2024-02-26T14:05:25;7.95;;;3.72;;
8919;SDS011;4495;42.644;23.274;2024-02-26T14:07:50;7.75;;;3.35;;
8919;SDS011;4495;42.644;23.274;2024-02-26T14:10:16;5.40;;;3.13;;
8919;SDS011;4495;42.644;23.274;2024-02-26T14:12:41;7.43;;;3.38;;
8919;SDS011;4495;42.644;23.274;2024-02-26T14:15:07;7.05;;;3.20;;
8919;SDS011;4495;42.644;23.274;2024-02-26T14:17:34;8.88;;;3.75;;
8919;SDS011;4495;42.644;23.274;2024-02-26T14:20:00;9.40;;;3.75;;
8919;SDS011;4495;42.644;23.274;2024-02-26T14:22:25;5.55;;;3.08;;
8919;SDS011;4495;42.644;23.274;2024-02-26T14:24:55;5.60;;;2.97;;
8919;SDS011;4495;42.644;23.274;2024-02-26T14:27:21;7.88;;;3.30;;
8919;SDS011;4495;42.644;23.274;2024-02-26T14:29:47;16.50;;;5.80;;
8919;SDS011;4495;42.644;23.274;2024-02-26T14:32:13;12.82;;;4.28;;
8919;SDS011;4495;42.644;23.274;2024-02-26T14:34:39;10.63;;;4.00;;
8919;SDS011;4495;42.644;23.274;2024-02-26T14:37:04;11.25;;;4.43;;
8919;SDS011;4495;42.644;23.274;2024-02-26T14:39:31;9.68;;;4.53;;
8919;SDS011;4495;42.644;23.274;2024-02-26T14:41:57;7.22;;;3.58;;
8919;SDS011;4495;42.644;23.274;2024-02-26T14:44:23;8.45;;;3.35;;
8919;SDS011;4495;42.644;23.274;2024-02-26T14:46:49;11.43;;;5.38;;
8919;SDS011;4495;42.644;23.274;2024-02-26T14:49:15;13.05;;;5.53;;
8919;SDS011;4495;42.644;23.274;2024-02-26T14:51:40;25.00;;;8.95;;
8919;SDS011;4495;42.644;23.274;2024-02-26T14:54:06;20.92;;;6.63;;
8919;SDS011;4495;42.644;23.274;2024-02-26T14:56:31;12.07;;;4.72;;
8919;SDS011;4495;42.644;23.274;2024-02-26T14:58:58;7.05;;;3.33;;
8919;SDS011;4495;42.644;23.274;2024-02-26T15:01:23;6.15;;;3.50;;
8919;SDS011;4495;42.644;23.274;2024-02-26T15:03:49;5.10;;;3.15;;
8919;SDS011;4495;42.644;23.274;2024-02-26T15:06:14;7.43;;;3.72;;
8919;SDS011;4495;42.644;23.274;2024-02-26T15:08:40;5.38;;;3.28;;